createdAt,value
2022-10-31T00:01:18.982Z,9.95
2022-10-31T00:03:46.647Z,10.02
2022-10-31T00:06:13.755Z,9.84
2022-10-31T00:08:40.776Z,9.67
2022-10-31T00:11:11.222Z,10.02
2022-10-31T00:13:38.357Z,9.96
2022-10-31T00:16:05.971Z,9.80
2022-10-31T00:18:32.988Z,9.81
2022-10-31T00:21:04.409Z,9.98
2022-10-31T00:23:32.027Z,9.93
2022-10-31T00:26:03.274Z,9.86
2022-10-31T00:28:31.349Z,9.88
2022-10-31T00:31:03.181Z,9.58
2022-10-31T00:33:30.335Z,9.84
2022-10-31T00:35:57.466Z,9.75
2022-10-31T00:38:24.492Z,9.76
2022-10-31T00:40:51.574Z,9.87
2022-10-31T00:43:18.570Z,9.82
2022-10-31T00:45:45.563Z,9.74
2022-10-31T00:48:12.798Z,9.80
2022-10-31T00:50:40.049Z,9.84
2022-10-31T00:53:07.387Z,9.68
2022-10-31T00:55:34.553Z,9.71
2022-10-31T00:58:02.021Z,9.78
2022-10-31T01:00:29.617Z,9.71
2022-10-31T01:02:57.311Z,9.60
2022-10-31T01:05:24.654Z,9.52
2022-10-31T01:07:51.723Z,9.72
2022-10-31T01:10:19.094Z,9.50
2022-10-31T01:12:49.217Z,9.83
2022-10-31T01:15:20.525Z,9.52
2022-10-31T01:17:48.404Z,9.76
2022-10-31T01:20:16.953Z,9.23
2022-10-31T01:22:43.965Z,9.65
2022-10-31T01:25:11.059Z,9.71
2022-10-31T01:27:38.279Z,9.66
2022-10-31T01:30:08.298Z,9.66
2022-10-31T01:32:35.296Z,9.62
2022-10-31T01:35:02.371Z,9.40
2022-10-31T01:37:29.496Z,9.70
2022-10-31T01:39:56.547Z,9.72
2022-10-31T01:42:23.901Z,9.32
2022-10-31T01:44:55.979Z,9.59
2022-10-31T01:47:33.061Z,9.61
2022-10-31T01:50:04.769Z,9.62
2022-10-31T01:52:43.383Z,9.46
2022-10-31T01:55:21.992Z,9.67
2022-10-31T01:57:52.870Z,9.57
2022-10-31T02:00:21.934Z,9.54
2022-10-31T02:02:51.088Z,9.61
2022-10-31T02:05:25.726Z,9.43
2022-10-31T02:08:14.578Z,9.30
2022-10-31T02:10:44.033Z,9.55
2022-10-31T02:13:13.860Z,9.54
2022-10-31T02:15:50.259Z,9.12
2022-10-31T02:18:18.485Z,9.52
2022-10-31T02:20:54.551Z,9.54
2022-10-31T02:23:49.461Z,9.60
2022-10-31T02:26:32.605Z,9.66
2022-10-31T02:29:22.913Z,9.52
2022-10-31T02:32:18.679Z,9.48
2022-10-31T02:34:57.885Z,9.12
2022-10-31T02:37:38.733Z,9.37
2022-10-31T02:40:23.552Z,9.42
2022-10-31T02:43:32.235Z,9.45
2022-10-31T02:46:05.858Z,9.48
2022-10-31T02:48:39.746Z,9.50
2022-10-31T02:51:09.159Z,9.17
2022-10-31T02:53:38.329Z,9.45
2022-10-31T02:56:16.332Z,9.42
2022-10-31T02:59:14.524Z,9.40
2022-10-31T03:02:00.346Z,9.39
2022-10-31T03:04:53.340Z,9.38
2022-10-31T03:07:33.916Z,9.36
2022-10-31T03:10:06.939Z,9.33
2022-10-31T03:12:34.823Z,9.30
2022-10-31T03:15:18.764Z,9.32
2022-10-31T03:17:57.618Z,9.32
2022-10-31T03:20:32.169Z,9.32
2022-10-31T03:23:01.909Z,9.24
2022-10-31T03:25:31.659Z,9.31
2022-10-31T03:28:03.552Z,9.19
2022-10-31T03:30:34.604Z,9.20
2022-10-31T03:33:04.480Z,9.20
2022-10-31T03:35:35.818Z,9.21
2022-10-31T03:38:07.624Z,9.18
2022-10-31T03:40:38.694Z,8.96
2022-10-31T03:43:11.369Z,9.17
2022-10-31T03:45:44.997Z,9.18
2022-10-31T03:48:14.525Z,9.10
2022-10-31T03:50:51.540Z,9.16
2022-10-31T03:53:46.460Z,9.18
2022-10-31T03:56:29.082Z,8.81
2022-10-31T03:58:59.246Z,8.88
2022-10-31T04:01:32.026Z,9.19
2022-10-31T04:04:00.984Z,9.22
2022-10-31T04:06:28.756Z,9.13
2022-10-31T04:09:00.541Z,9.16
2022-10-31T04:11:32.335Z,8.96
2022-10-31T04:14:19.401Z,8.95
2022-10-31T04:16:46.639Z,8.95
2022-10-31T04:19:14.025Z,8.85
2022-10-31T04:21:44.166Z,8.84
2022-10-31T04:24:12.059Z,8.96
2022-10-31T04:26:39.476Z,8.87
2022-10-31T04:29:06.780Z,8.99
2022-10-31T04:31:33.787Z,8.97
2022-10-31T04:34:00.772Z,8.98
2022-10-31T04:36:27.988Z,8.96
2022-10-31T04:38:55.012Z,8.94
2022-10-31T04:41:37.666Z,8.91
2022-10-31T04:44:14.994Z,8.55
2022-10-31T04:46:42.177Z,8.83
2022-10-31T04:49:10.217Z,8.63
2022-10-31T04:51:37.747Z,8.53
2022-10-31T04:54:05.320Z,8.83
2022-10-31T04:56:35.176Z,8.71
2022-10-31T04:59:06.992Z,8.78
2022-10-31T05:01:54.111Z,8.67
2022-10-31T05:04:28.659Z,8.69
2022-10-31T05:06:55.664Z,8.49
2022-10-31T05:09:22.693Z,8.43
2022-10-31T05:11:49.651Z,8.78
2022-10-31T05:14:40.041Z,8.80
2022-10-31T05:17:27.287Z,8.73
2022-10-31T05:20:15.935Z,8.70
2022-10-31T05:23:04.337Z,8.62
2022-10-31T05:25:31.475Z,8.57
2022-10-31T05:28:00.363Z,8.46
2022-10-31T05:30:31.101Z,8.63
2022-10-31T05:32:59.863Z,8.62
2022-10-31T05:35:45.863Z,8.20
2022-10-31T05:38:36.030Z,8.03
2022-10-31T05:41:11.533Z,8.54
2022-10-31T05:43:41.801Z,8.19
2022-10-31T05:46:08.896Z,8.40
2022-10-31T05:49:02.872Z,8.34
2022-10-31T05:51:48.970Z,8.31
2022-10-31T05:54:16.327Z,8.30
2022-10-31T05:56:45.739Z,8.33
2022-10-31T05:59:12.909Z,8.44
2022-10-31T06:01:40.836Z,8.24
2022-10-31T06:04:19.851Z,8.31
2022-10-31T06:06:46.927Z,8.30
2022-10-31T06:09:13.971Z,8.29
2022-10-31T06:11:43.865Z,8.19
2022-10-31T06:14:25.775Z,8.24
2022-10-31T06:16:57.851Z,8.25
2022-10-31T06:19:43.726Z,7.98
2022-10-31T06:22:14.184Z,8.28
2022-10-31T06:24:41.153Z,8.29
2022-10-31T06:27:27.701Z,8.34
2022-10-31T06:29:55.288Z,8.34
2022-10-31T06:32:32.561Z,8.34
2022-10-31T06:34:59.601Z,8.34
2022-10-31T06:37:26.902Z,8.03
2022-10-31T06:40:00.259Z,8.38
2022-10-31T06:42:27.239Z,8.39
2022-10-31T06:44:54.438Z,8.34
2022-10-31T06:48:15.456Z,8.38
2022-10-31T06:50:44.355Z,8.45
2022-10-31T06:53:15.317Z,8.04
2022-10-31T06:55:43.020Z,8.54
2022-10-31T06:58:11.540Z,8.62
2022-10-31T07:00:40.544Z,8.69
2022-10-31T07:03:12.220Z,8.78
2022-10-31T07:05:39.354Z,8.82
2022-10-31T07:08:09.638Z,8.84
2022-10-31T07:10:40.526Z,8.82
2022-10-31T07:13:14.848Z,8.82
2022-10-31T07:15:51.379Z,8.88
2022-10-31T07:18:18.384Z,9.00
2022-10-31T07:20:45.773Z,9.03
2022-10-31T07:23:13.261Z,9.10
2022-10-31T07:25:43.519Z,9.15
2022-10-31T07:28:16.268Z,9.31
2022-10-31T07:30:54.145Z,9.44
2022-10-31T07:33:22.868Z,9.47
2022-10-31T07:36:08.730Z,9.38
2022-10-31T07:38:35.991Z,9.58
2022-10-31T07:41:05.204Z,9.56
2022-10-31T07:43:38.100Z,9.88
2022-10-31T07:46:30.718Z,10.18
2022-10-31T07:49:36.300Z,10.21
2022-10-31T07:52:21.958Z,10.00
2022-10-31T07:55:01.037Z,10.30
2022-10-31T07:57:31.918Z,10.24
2022-10-31T08:00:01.665Z,10.41
2022-10-31T08:02:30.481Z,10.47
2022-10-31T08:05:17.557Z,10.35
2022-10-31T08:08:17.633Z,10.58
2022-10-31T08:10:45.097Z,10.37
2022-10-31T08:13:14.284Z,10.77
2022-10-31T08:15:45.396Z,10.98
2022-10-31T08:18:15.945Z,11.09
2022-10-31T08:20:44.323Z,11.22
2022-10-31T08:23:12.830Z,11.38
2022-10-31T08:25:40.027Z,11.16
2022-10-31T08:28:09.613Z,11.26
2022-10-31T08:30:38.836Z,10.92
2022-10-31T08:33:24.277Z,11.18
2022-10-31T08:36:09.640Z,11.31
2022-10-31T08:39:01.653Z,11.42
2022-10-31T08:41:30.340Z,11.62
2022-10-31T08:43:58.660Z,11.43
2022-10-31T08:46:25.942Z,11.77
2022-10-31T08:48:53.804Z,11.99
2022-10-31T08:51:21.473Z,11.79
2022-10-31T08:53:52.537Z,12.03
2022-10-31T08:56:34.611Z,12.05
2022-10-31T08:59:04.749Z,12.20
2022-10-31T09:01:52.377Z,12.41
2022-10-31T09:04:19.660Z,12.41
2022-10-31T09:07:07.900Z,12.58
2022-10-31T09:09:33.781Z,12.66
2022-10-31T09:12:01.319Z,12.77
2022-10-31T09:14:46.708Z,13.08
2022-10-31T09:17:31.051Z,13.19
2022-10-31T09:20:28.474Z,12.97
2022-10-31T09:23:00.709Z,13.61
2022-10-31T09:25:29.668Z,13.69
2022-10-31T09:28:19.181Z,13.97
2022-10-31T09:30:52.604Z,14.00
2022-10-31T09:33:39.528Z,13.94
2022-10-31T09:36:36.895Z,14.19
2022-10-31T09:39:05.185Z,14.05
2022-10-31T09:42:02.554Z,14.41
2022-10-31T09:45:08.348Z,14.63
2022-10-31T09:47:52.714Z,14.99
2022-10-31T09:50:57.401Z,15.05
2022-10-31T09:53:50.349Z,15.31
2022-10-31T09:56:23.826Z,15.50
2022-10-31T09:58:59.053Z,15.57
2022-10-31T10:01:46.974Z,15.70
2022-10-31T10:04:40.231Z,15.77
2022-10-31T10:07:37.690Z,16.05
2022-10-31T10:10:42.048Z,16.11
2022-10-31T10:13:55.761Z,16.25
2022-10-31T10:17:01.868Z,16.45
2022-10-31T10:19:40.778Z,16.59
2022-10-31T10:22:15.475Z,16.45
2022-10-31T10:25:14.866Z,16.48
2022-10-31T10:27:50.953Z,16.82
2022-10-31T10:30:42.216Z,16.64
2022-10-31T10:33:23.665Z,16.54
2022-10-31T10:35:56.622Z,16.57
2022-10-31T10:38:29.641Z,16.91
2022-10-31T10:40:59.079Z,17.05
2022-10-31T10:43:35.436Z,17.07
2022-10-31T10:46:30.393Z,17.21
2022-10-31T10:49:07.769Z,17.29
2022-10-31T10:52:07.526Z,17.37
2022-10-31T10:54:59.265Z,17.26
2022-10-31T10:57:47.974Z,17.51
2022-10-31T11:00:23.713Z,17.57
2022-10-31T11:02:51.596Z,17.70
2022-10-31T11:05:31.084Z,17.90
2022-10-31T11:07:58.151Z,18.04
2022-10-31T11:10:25.516Z,18.19
2022-10-31T11:13:16.785Z,18.05
2022-10-31T11:16:06.974Z,18.30
2022-10-31T11:18:38.985Z,18.45
2022-10-31T11:21:06.793Z,18.47
2022-10-31T11:23:33.894Z,18.43
2022-10-31T11:26:05.689Z,18.46
2022-10-31T11:28:35.777Z,18.77
2022-10-31T11:31:09.652Z,18.79
2022-10-31T11:33:45.457Z,18.74
2022-10-31T11:36:28.513Z,18.75
2022-10-31T11:38:56.081Z,18.84
2022-10-31T11:41:32.114Z,18.90
2022-10-31T11:43:59.127Z,18.99
2022-10-31T11:46:35.298Z,18.90
2022-10-31T11:49:03.644Z,18.54
2022-10-31T11:51:34.328Z,18.77
2022-10-31T11:54:04.035Z,18.56
2022-10-31T11:56:43.384Z,18.64
2022-10-31T11:59:22.606Z,18.64
2022-10-31T12:01:51.745Z,18.33
2022-10-31T12:04:19.470Z,18.53
2022-10-31T12:06:48.369Z,18.69
2022-10-31T12:09:22.959Z,18.52
2022-10-31T12:12:18.461Z,18.58
2022-10-31T12:15:08.839Z,18.89
2022-10-31T12:17:49.856Z,18.73
2022-10-31T12:20:34.494Z,19.13
2022-10-31T12:23:19.074Z,19.47
2022-10-31T12:26:09.803Z,19.10
2022-10-31T12:28:55.169Z,19.02
2022-10-31T12:31:40.281Z,18.90
2022-10-31T12:34:22.178Z,18.82
2022-10-31T12:36:51.921Z,18.95
2022-10-31T12:39:24.952Z,18.80
2022-10-31T12:42:04.420Z,18.97
2022-10-31T12:44:59.257Z,18.99
2022-10-31T12:47:49.676Z,18.88
2022-10-31T12:50:32.614Z,18.93
2022-10-31T12:56:10.860Z,18.81
2022-10-31T12:58:48.047Z,18.90
2022-10-31T13:01:25.125Z,18.93
2022-10-31T13:03:55.889Z,18.83
2022-10-31T13:06:30.104Z,18.61
2022-10-31T13:09:02.517Z,18.57
2022-10-31T13:11:38.688Z,18.51
2022-10-31T13:14:20.978Z,18.57
2022-10-31T13:16:49.030Z,18.60
2022-10-31T13:19:28.683Z,18.61
2022-10-31T13:22:06.518Z,18.42
2022-10-31T13:24:41.424Z,18.51
2022-10-31T13:27:42.920Z,18.41
2022-10-31T13:30:19.767Z,18.31
2022-10-31T13:32:58.849Z,18.29
2022-10-31T13:35:42.357Z,18.29
2022-10-31T13:38:23.447Z,18.41
2022-10-31T13:40:54.939Z,18.38
2022-10-31T13:43:27.951Z,18.36
2022-10-31T13:45:56.629Z,17.92
2022-10-31T13:48:26.566Z,18.38
2022-10-31T13:50:58.593Z,18.43
2022-10-31T13:53:44.831Z,18.44
2022-10-31T13:56:19.541Z,18.53
2022-10-31T13:58:58.809Z,18.57
2022-10-31T14:01:26.690Z,18.52
2022-10-31T14:04:20.725Z,18.63
2022-10-31T14:06:59.939Z,18.71
2022-10-31T14:09:29.670Z,18.71
2022-10-31T14:11:59.871Z,18.73
2022-10-31T14:14:33.813Z,18.80
2022-10-31T14:17:01.871Z,18.88
2022-10-31T14:19:28.897Z,18.72
2022-10-31T14:21:55.984Z,18.56
2022-10-31T14:24:25.999Z,18.54
2022-10-31T14:26:56.572Z,18.39
2022-10-31T14:29:27.720Z,18.35
2022-10-31T14:32:12.037Z,18.04
2022-10-31T14:34:42.712Z,18.15
2022-10-31T14:37:31.457Z,18.22
2022-10-31T14:40:22.832Z,18.11
2022-10-31T14:43:10.045Z,17.79
2022-10-31T14:46:01.175Z,17.91
2022-10-31T14:48:44.454Z,17.92
2022-10-31T14:51:18.647Z,17.72
2022-10-31T14:53:55.741Z,17.83
2022-10-31T14:56:28.404Z,17.83
2022-10-31T14:58:57.639Z,17.90
2022-10-31T15:01:30.703Z,17.92
2022-10-31T15:04:24.560Z,17.84
2022-10-31T15:07:05.969Z,17.81
2022-10-31T15:09:36.273Z,17.73
2022-10-31T15:12:32.403Z,17.65
2022-10-31T15:15:17.677Z,17.52
2022-10-31T15:17:50.016Z,17.54
2022-10-31T15:20:27.183Z,17.47
2022-10-31T15:22:59.223Z,17.48
2022-10-31T15:25:31.187Z,17.54
2022-10-31T15:27:58.427Z,17.39
2022-10-31T15:30:28.098Z,17.53
2022-10-31T15:32:58.595Z,17.45
2022-10-31T15:35:29.479Z,17.40
2022-10-31T15:37:58.953Z,17.34
2022-10-31T15:40:27.381Z,17.36
2022-10-31T15:43:01.817Z,17.30
2022-10-31T15:45:31.145Z,17.04
2022-10-31T15:48:03.161Z,16.91
2022-10-31T15:50:41.511Z,17.23
2022-10-31T15:53:22.071Z,16.81
2022-10-31T15:56:02.330Z,16.87
2022-10-31T15:58:31.245Z,16.92
2022-10-31T16:01:01.149Z,16.79
2022-10-31T16:03:33.009Z,16.65
2022-10-31T16:06:05.710Z,16.52
2022-10-31T16:08:36.501Z,16.44
2022-10-31T16:11:13.494Z,16.34
2022-10-31T16:13:56.759Z,16.23
2022-10-31T16:16:39.953Z,15.99
2022-10-31T16:19:19.025Z,16.08
2022-10-31T16:21:48.743Z,16.01
2022-10-31T16:24:18.545Z,15.95
2022-10-31T16:26:54.708Z,15.92
2022-10-31T16:29:33.894Z,15.59
2022-10-31T16:32:01.106Z,15.67
2022-10-31T16:34:28.149Z,15.65
2022-10-31T16:36:55.129Z,15.31
2022-10-31T16:39:22.444Z,15.26
2022-10-31T16:41:53.265Z,15.03
2022-10-31T16:44:24.279Z,15.50
2022-10-31T16:47:14.639Z,15.49
2022-10-31T16:49:43.291Z,15.48
2022-10-31T16:52:10.570Z,15.51
2022-10-31T16:54:38.110Z,15.19
2022-10-31T16:57:06.698Z,14.99
2022-10-31T16:59:35.023Z,15.14
2022-10-31T17:02:04.584Z,15.16
2022-10-31T17:04:31.773Z,15.04
2022-10-31T17:06:58.866Z,15.12
2022-10-31T17:09:25.830Z,15.13
2022-10-31T17:11:54.089Z,14.72
2022-10-31T17:14:21.948Z,14.92
2022-10-31T17:16:49.214Z,14.73
2022-10-31T17:19:16.619Z,14.77
2022-10-31T17:21:43.736Z,14.41
2022-10-31T17:24:15.219Z,14.64
2022-10-31T17:26:43.446Z,14.53
2022-10-31T17:29:10.518Z,14.42
2022-10-31T17:31:39.117Z,14.37
2022-10-31T17:34:07.135Z,14.37
2022-10-31T17:36:35.322Z,14.30
2022-10-31T17:39:05.332Z,14.25
2022-10-31T17:41:32.369Z,14.30
2022-10-31T17:43:59.957Z,13.98
2022-10-31T17:46:28.277Z,14.21
2022-10-31T17:48:55.451Z,14.18
2022-10-31T17:51:22.523Z,14.48
2022-10-31T17:53:49.495Z,14.50
2022-10-31T17:56:16.518Z,14.34
2022-10-31T17:58:43.806Z,14.30
2022-10-31T18:01:14.882Z,14.34
2022-10-31T18:03:42.373Z,14.28
2022-10-31T18:06:10.791Z,14.16
2022-10-31T18:08:39.983Z,14.11
2022-10-31T18:11:17.744Z,13.92
2022-10-31T18:13:44.814Z,13.85
2022-10-31T18:16:14.897Z,13.80
2022-10-31T18:18:42.465Z,13.44
2022-10-31T18:21:09.659Z,13.63
2022-10-31T18:23:36.826Z,13.64
2022-10-31T18:26:03.979Z,13.60
2022-10-31T18:28:31.032Z,13.53
2022-10-31T18:30:59.808Z,13.35
2022-10-31T18:33:27.170Z,13.27
2022-10-31T18:35:54.519Z,13.19
2022-10-31T18:38:21.697Z,13.09
2022-10-31T18:40:48.850Z,12.96
2022-10-31T18:43:15.899Z,12.97
2022-10-31T18:45:47.828Z,12.90
2022-10-31T18:48:17.195Z,12.82
2022-10-31T18:50:44.620Z,12.76
2022-10-31T18:53:11.716Z,12.67
2022-10-31T18:55:43.900Z,12.71
2022-10-31T18:58:14.447Z,12.74
2022-10-31T19:00:41.572Z,12.57
2022-10-31T19:03:08.670Z,12.79
2022-10-31T19:05:35.700Z,12.81
2022-10-31T19:08:02.912Z,12.45
2022-10-31T19:10:29.919Z,12.55
2022-10-31T19:12:56.955Z,12.47
2022-10-31T19:15:23.964Z,12.42
2022-10-31T19:17:51.025Z,12.34
2022-10-31T19:20:18.090Z,12.29
2022-10-31T19:22:45.117Z,12.15
2022-10-31T19:25:12.262Z,11.82
2022-10-31T19:27:39.444Z,11.71
2022-10-31T19:30:07.196Z,11.94
2022-10-31T19:32:34.197Z,11.82
2022-10-31T19:35:01.276Z,11.78
2022-10-31T19:37:28.889Z,11.83
2022-10-31T19:39:55.872Z,11.94
2022-10-31T19:42:24.208Z,11.94
2022-10-31T19:44:51.213Z,11.92
2022-10-31T19:47:18.268Z,11.61
2022-10-31T19:49:45.241Z,11.69
2022-10-31T19:52:12.220Z,11.88
2022-10-31T19:54:39.190Z,11.83
2022-10-31T19:57:06.218Z,11.79
2022-10-31T19:59:38.963Z,11.53
2022-10-31T20:02:06.847Z,11.73
2022-10-31T20:04:33.852Z,11.55
2022-10-31T20:07:00.850Z,11.68
2022-10-31T20:09:27.828Z,11.68
2022-10-31T20:11:54.850Z,11.23
2022-10-31T20:14:21.823Z,11.35
2022-10-31T20:16:48.841Z,11.65
2022-10-31T20:19:15.804Z,11.65
2022-10-31T20:21:42.941Z,11.49
2022-10-31T20:24:10.689Z,11.51
2022-10-31T20:26:40.519Z,11.28
2022-10-31T20:29:08.157Z,11.46
2022-10-31T20:31:36.499Z,11.52
2022-10-31T20:34:03.794Z,11.42
2022-10-31T20:36:31.155Z,11.42
2022-10-31T20:38:58.694Z,11.41
2022-10-31T20:41:26.367Z,11.38
2022-10-31T20:43:53.519Z,11.18
2022-10-31T20:46:25.108Z,11.28
2022-10-31T20:48:53.641Z,11.28
2022-10-31T20:51:25.690Z,11.23
2022-10-31T20:53:53.984Z,11.11
2022-10-31T20:56:23.453Z,11.25
2022-10-31T20:58:51.000Z,11.28
2022-10-31T21:01:29.178Z,11.27
2022-10-31T21:03:58.329Z,11.37
2022-10-31T21:06:25.966Z,11.44
2022-10-31T21:08:53.814Z,11.42
2022-10-31T21:11:22.807Z,11.50
2022-10-31T21:13:50.711Z,11.39
2022-10-31T21:16:20.394Z,11.57
2022-10-31T21:18:51.756Z,11.56
2022-10-31T21:21:32.240Z,11.45
2022-10-31T21:24:05.677Z,11.57
2022-10-31T21:26:36.223Z,11.58
2022-10-31T21:29:05.273Z,11.56
2022-10-31T21:31:34.619Z,11.51
2022-10-31T21:34:01.771Z,11.51
2022-10-31T21:36:28.825Z,11.33
2022-10-31T21:38:56.136Z,11.32
2022-10-31T21:41:24.683Z,11.49
2022-10-31T21:43:54.262Z,11.47
2022-10-31T21:46:23.915Z,11.18
2022-10-31T21:48:50.906Z,11.40
2022-10-31T21:51:24.069Z,11.40
2022-10-31T21:54:10.791Z,11.16
2022-10-31T21:56:38.811Z,11.34
2022-10-31T21:59:06.327Z,11.28
2022-10-31T22:01:34.767Z,11.31
2022-10-31T22:04:02.193Z,11.36
2022-10-31T22:06:32.354Z,11.34
2022-10-31T22:09:01.388Z,11.33
2022-10-31T22:11:28.888Z,11.39
2022-10-31T22:13:58.119Z,11.32
2022-10-31T22:16:27.291Z,11.43
2022-10-31T22:18:56.657Z,11.33
2022-10-31T22:21:26.672Z,11.30
2022-10-31T22:23:56.726Z,11.23
2022-10-31T22:26:24.656Z,11.18
2022-10-31T22:28:53.899Z,11.10
2022-10-31T22:31:22.279Z,11.00
2022-10-31T22:33:50.341Z,10.94
2022-10-31T22:36:20.464Z,10.89
2022-10-31T22:38:47.779Z,10.87
2022-10-31T22:41:26.192Z,10.78
2022-10-31T22:43:54.533Z,10.45
2022-10-31T22:46:26.980Z,10.80
2022-10-31T22:49:14.840Z,10.65
2022-10-31T22:51:43.076Z,10.79
2022-10-31T22:54:16.017Z,10.49
2022-10-31T22:56:43.207Z,10.83
2022-10-31T22:59:15.170Z,10.88
2022-10-31T23:01:44.672Z,10.88
2022-10-31T23:06:44.326Z,10.84
2022-10-31T23:09:14.565Z,10.77
2022-10-31T23:11:41.932Z,10.84
2022-10-31T23:14:16.699Z,10.78
2022-10-31T23:16:43.667Z,10.88
2022-10-31T23:19:22.619Z,10.73
2022-10-31T23:22:02.280Z,10.85
2022-10-31T23:24:37.709Z,10.81
2022-10-31T23:27:19.103Z,10.78
2022-10-31T23:29:54.376Z,10.96
2022-10-31T23:32:27.354Z,10.95
2022-10-31T23:34:56.855Z,10.74
2022-10-31T23:37:26.853Z,10.93
2022-10-31T23:39:54.369Z,10.89
2022-10-31T23:42:22.287Z,10.92
2022-10-31T23:44:49.695Z,10.68
2022-10-31T23:47:17.409Z,10.90
2022-10-31T23:49:44.406Z,11.01
2022-10-31T23:52:12.022Z,11.05
2022-10-31T23:54:39.790Z,10.75
2022-10-31T23:57:07.065Z,10.87
2022-10-31T23:59:34.110Z,11.00
